Aérodrome :
LOGIN :

S'inscrire | Disclaimer

   EN    FR    IT 

 










Légende :    VFR   VFR Marginal   IFR   IFR Intensif   IFR Très Intensif
Visi : 
Plafond : 
>= 8 km
>= 3000ft
5 à 8 km
1000 à 3000 ft
1500m à 5 km
500 à 1000 ft
800 à 1500m
200 à 500 ft
< 800m
< 200 ft
Symboles :   Orages  Brouillard  Fortes neiges  Fortes précipitations  Vent > 20 kt
SIGMETs :   Divers  Orages  Givrage  Turbulence  Onde Orograph.  Cendres Volcan.







- Altitude de l'aérodrome : 26 ft
- Code IATA : BIA
- Voir les cartes d'approche


LFKB - Bastia

DERNIER METAR :
  • 281200Z 16022G34KT 9999 FEW016 SCT020 FEW030TCU 29/20 Q1001 NOSIG

METARs EXPIRÉS :
  • 281130Z 16022G34KT 9999 FEW016 SCT020 SCT030CB 29/20 Q1001 NOSIG
  • 281100Z 16025G38KT 9999 FEW013 SCT030 28/20 Q1001 NOSIG
  • 281035Z 15025G36KT 9999 4000W DRSA FEW010 SCT030 29/21 Q1001 NOSIG
  • 281000Z 15014KT 120V190 9999 FEW010 SCT020 30/21 Q1002 NOSIG
  • 280930Z 16006KT 110V210 9999 FEW006 SCT020 29/22 Q1002 NOSIG

TAF TAF LFKB
Valide du 28 à 09h jusqu'au 29 à 09h UTC


280800Z 2809/2909 15015G30KT 9999 FEW013 SCT020 BKN160
PROB40
TEMPO 2812/2818 25020G35KT SHRA SCT020CB BKN030
BECMG 2818/2821 22010G20KT CAVOK TX30/2812Z TN19/2903Z
ATIS : +33 4 95 59 19 40
Pas de NOTAMs connus pour ce terrain.
1 SIGMET publié pour la FIR Marseille (LFMM) :
 
Orages noyés dans la masse
LFMM SIGMET 9 VALID 281100/281300 LFPW
LFMM MARSEILLE FIR/UIR EMBD TS OBS AT 1100Z WI N4445 E00700 - N4400 E00700 - N4345 E00800 - N4230 E00730 - N4230 E00630 - N4415 E00600 TOP FL330 MOV NE 25KT NC=



MET'MAP, la Météo Aéronautique d'un coup d'oeil ! - Copyright ORBIFLY Décembre 2007 - Disclaimer

ORBIFLY MET'MAP TEAM :

Programmation & Développement : Alexandra Zaïnal
Conception & Développement : Baudouin d'Aumeries
Co-Programmation & Développement : Marc-Olivier Méhu
Soutien technique & logistique : Manuel Goepfert

Contact : metmap@orbifly.com




SOURCES & CREDITS :

   NOAA